createdAt,value
2018-03-01T00:00:01.374Z,19.97
2018-03-01T00:03:24.692Z,18.47
2018-03-01T00:06:48.068Z,20.03
2018-03-01T00:10:11.379Z,19.90
2018-03-01T00:13:34.804Z,20.37
2018-03-01T00:16:58.173Z,19.17
2018-03-01T00:20:21.467Z,19.67
2018-03-01T00:23:45.505Z,18.97
2018-03-01T00:27:09.566Z,19.67
2018-03-01T00:30:32.948Z,19.07
2018-03-01T00:33:56.999Z,19.20
2018-03-01T00:37:21.040Z,18.43
2018-03-01T00:40:44.355Z,18.13
2018-03-01T00:44:08.405Z,20.00
2018-03-01T00:47:31.717Z,18.57
2018-03-01T00:50:55.069Z,18.77
2018-03-01T00:54:19.157Z,19.57
2018-03-01T00:57:43.195Z,20.07
2018-03-01T01:01:08.276Z,19.93
2018-03-01T01:04:31.705Z,18.70
2018-03-01T01:07:55.044Z,18.37
2018-03-01T01:11:19.168Z,18.60
2018-03-01T01:14:42.490Z,18.67
2018-03-01T01:18:05.767Z,19.53
2018-03-01T01:21:29.837Z,18.90
2018-03-01T01:24:53.129Z,19.20
2018-03-01T01:28:17.251Z,19.10
2018-03-01T01:31:40.567Z,20.97
2018-03-01T01:35:03.847Z,18.17
2018-03-01T01:38:27.895Z,19.77
2018-03-01T01:41:51.937Z,19.43
2018-03-01T01:45:15.213Z,18.33
2018-03-01T01:48:38.513Z,19.23
2018-03-01T01:52:02.561Z,18.90
2018-03-01T01:55:25.893Z,19.27
2018-03-01T01:58:49.191Z,18.93
2018-03-01T02:02:12.503Z,18.87
2018-03-01T02:05:36.552Z,19.37
2018-03-01T02:08:59.821Z,18.63
2018-03-01T02:12:23.125Z,18.67
2018-03-01T02:15:46.438Z,18.70
2018-03-01T02:19:10.491Z,19.17
2018-03-01T02:22:33.770Z,19.03
2018-03-01T02:25:57.075Z,18.57
2018-03-01T02:29:21.128Z,18.93
2018-03-01T02:32:44.508Z,18.83
2018-03-01T02:36:07.817Z,18.23
2018-03-01T02:39:31.172Z,18.23
2018-03-01T02:42:54.449Z,18.63
2018-03-01T02:46:17.744Z,18.90
2018-03-01T02:49:41.804Z,20.13
2018-03-01T02:53:05.147Z,19.13
2018-03-01T02:56:29.213Z,18.87
2018-03-01T02:59:52.548Z,19.07
2018-03-01T03:03:15.916Z,18.37
2018-03-01T03:06:39.290Z,19.20
2018-03-01T03:10:02.655Z,19.03
2018-03-01T03:13:25.965Z,18.63
2018-03-01T03:16:49.267Z,19.17
2018-03-01T03:20:13.310Z,19.03
2018-03-01T03:23:36.651Z,20.03
2018-03-01T03:26:59.950Z,18.53
2018-03-01T03:30:24.005Z,18.33
2018-03-01T03:33:48.143Z,19.40
2018-03-01T03:37:11.512Z,19.73
2018-03-01T03:40:34.884Z,19.07
2018-03-01T03:43:58.253Z,19.47
2018-03-01T03:47:21.539Z,20.03
2018-03-01T03:50:45.666Z,19.20
2018-03-01T03:54:09.805Z,19.10
2018-03-01T03:57:33.934Z,19.03
2018-03-01T04:00:57.228Z,19.10
2018-03-01T04:04:20.567Z,19.37
2018-03-01T04:07:43.859Z,18.73
2018-03-01T04:11:07.929Z,19.27
2018-03-01T04:14:31.236Z,18.57
2018-03-01T04:17:54.556Z,20.00
2018-03-01T04:21:17.862Z,20.47
2018-03-01T04:24:41.934Z,20.43
2018-03-01T04:28:06.028Z,19.80
2018-03-01T04:31:30.110Z,20.30
2018-03-01T04:34:54.233Z,20.53
2018-03-01T04:38:17.543Z,19.87
2018-03-01T04:41:40.824Z,19.80
2018-03-01T04:45:04.110Z,20.63
2018-03-01T04:48:28.173Z,21.03
2018-03-01T04:51:55.446Z,18.30
2018-03-01T04:55:18.804Z,21.00
2018-03-01T04:58:42.178Z,20.60
2018-03-01T05:02:05.551Z,20.30
2018-03-01T05:05:28.868Z,21.73
2018-03-01T05:08:52.143Z,19.87
2018-03-01T05:12:16.252Z,20.70
2018-03-01T05:15:40.361Z,21.60
2018-03-01T05:19:03.668Z,19.33
2018-03-01T05:22:26.993Z,20.50
2018-03-01T05:25:50.287Z,20.10
2018-03-01T05:29:14.357Z,20.67
2018-03-01T05:32:37.658Z,19.13
2018-03-01T05:36:00.995Z,21.17
2018-03-01T05:39:25.131Z,20.67
2018-03-01T05:42:49.495Z,21.43
2018-03-01T05:46:12.897Z,19.17
2018-03-01T05:49:36.267Z,20.13
2018-03-01T05:53:02.243Z,19.77
2018-03-01T05:56:26.386Z,19.53
2018-03-01T05:59:50.524Z,20.87
2018-03-01T06:03:13.894Z,19.87
2018-03-01T06:06:38.081Z,20.70
2018-03-01T06:10:01.406Z,21.10
2018-03-01T06:13:25.539Z,18.80
2018-03-01T06:16:48.982Z,19.53
2018-03-01T06:20:13.179Z,19.23
2018-03-01T06:23:36.572Z,20.03
2018-03-01T06:26:59.924Z,21.10
2018-03-01T06:30:23.398Z,20.40
2018-03-01T06:33:47.467Z,19.83
2018-03-01T06:37:11.556Z,21.00
2018-03-01T06:40:34.936Z,19.40
2018-03-01T06:43:58.309Z,20.23
2018-03-01T06:47:21.552Z,19.97
2018-03-01T06:50:45.719Z,19.73
2018-03-01T06:54:09.099Z,20.63
2018-03-01T06:57:32.466Z,19.07
2018-03-01T07:00:55.750Z,21.53
2018-03-01T07:04:19.113Z,20.67
2018-03-01T07:07:43.208Z,20.53
2018-03-01T07:11:07.345Z,19.80
2018-03-01T07:14:31.481Z,21.43
2018-03-01T07:17:54.850Z,20.60
2018-03-01T07:21:18.119Z,19.97
2018-03-01T07:24:41.484Z,21.07
2018-03-01T07:28:04.856Z,20.00
2018-03-01T07:31:28.188Z,20.23
2018-03-01T07:34:52.314Z,20.60
2018-03-01T07:38:15.588Z,19.43
2018-03-01T07:41:39.719Z,20.63
2018-03-01T07:45:03.024Z,19.53
2018-03-01T07:48:26.406Z,20.87
2018-03-01T07:51:49.743Z,19.90
2018-03-01T07:55:13.787Z,20.33
2018-03-01T07:58:37.872Z,20.87
2018-03-01T08:02:01.993Z,21.60
2018-03-01T08:05:26.057Z,20.67
2018-03-01T08:08:50.098Z,20.40
2018-03-01T08:12:13.377Z,20.93
2018-03-01T08:15:36.659Z,20.67
2018-03-01T08:19:00.785Z,20.77
2018-03-01T08:22:24.089Z,21.70
2018-03-01T08:25:47.472Z,21.17
2018-03-01T08:29:10.778Z,21.70
2018-03-01T08:32:34.067Z,20.43
2018-03-01T08:35:58.136Z,22.23
2018-03-01T08:39:21.451Z,21.40
2018-03-01T08:42:45.492Z,21.63
2018-03-01T08:46:08.799Z,20.70
2018-03-01T08:49:32.937Z,20.60
2018-03-01T08:52:56.216Z,20.17
2018-03-01T08:56:19.487Z,20.60
2018-03-01T08:59:42.777Z,21.37
2018-03-01T09:03:06.907Z,22.10
2018-03-01T09:06:30.275Z,20.93
2018-03-01T09:09:53.616Z,20.97
2018-03-01T09:13:17.654Z,20.83
2018-03-01T09:16:40.953Z,20.80
2018-03-01T09:20:05.083Z,21.10
2018-03-01T09:23:28.359Z,19.83
2018-03-01T09:26:52.400Z,21.53
2018-03-01T09:30:16.443Z,22.37
2018-03-01T09:33:39.777Z,21.33
2018-03-01T09:37:03.111Z,22.47
2018-03-01T09:40:26.399Z,21.40
2018-03-01T09:43:50.435Z,22.40
2018-03-01T09:47:14.491Z,22.70
2018-03-01T09:50:37.791Z,22.10
2018-03-01T09:54:01.924Z,22.00
2018-03-01T09:57:26.059Z,22.73
2018-03-01T10:00:50.204Z,22.57
2018-03-01T10:04:14.880Z,22.30
2018-03-01T10:07:38.978Z,22.97
2018-03-01T10:11:03.062Z,22.03
2018-03-01T10:14:26.431Z,22.90
2018-03-01T10:17:49.721Z,22.40
2018-03-01T10:21:13.756Z,20.53
2018-03-01T10:24:37.106Z,24.43
2018-03-01T10:28:00.403Z,23.53
2018-03-01T10:31:23.750Z,22.40
2018-03-01T10:34:47.893Z,23.83
2018-03-01T10:38:12.025Z,23.13
2018-03-01T10:41:35.306Z,24.00
2018-03-01T10:44:59.427Z,23.80
2018-03-01T10:48:22.703Z,23.13
2018-03-01T10:51:46.795Z,21.87
2018-03-01T10:55:10.922Z,25.47
2018-03-01T10:58:34.288Z,23.73
2018-03-01T11:01:59.866Z,22.07
2018-03-01T11:05:24.005Z,23.50
2018-03-01T11:08:48.083Z,23.63
2018-03-01T11:12:12.122Z,23.70
2018-03-01T11:15:35.399Z,24.13
2018-03-01T11:18:59.446Z,24.73
2018-03-01T11:22:23.566Z,24.47
2018-03-01T11:25:47.014Z,25.53
2018-03-01T11:29:10.377Z,24.23
2018-03-01T11:32:33.778Z,25.30
2018-03-01T11:35:57.915Z,24.50
2018-03-01T11:39:21.285Z,24.70
2018-03-01T11:42:44.571Z,25.57
2018-03-01T11:46:08.689Z,24.77
2018-03-01T11:49:31.953Z,25.33
2018-03-01T11:52:55.333Z,25.43
2018-03-01T11:56:18.623Z,24.07
2018-03-01T11:59:41.962Z,25.60
2018-03-01T12:03:05.351Z,25.83
2018-03-01T12:06:29.475Z,25.77
2018-03-01T12:09:52.750Z,25.50
2018-03-01T12:13:16.025Z,24.97
2018-03-01T12:16:40.151Z,25.27
2018-03-01T12:20:03.777Z,23.53
2018-03-01T12:23:27.199Z,25.63
2018-03-01T12:26:50.465Z,24.43
2018-03-01T12:30:13.782Z,26.60
2018-03-01T12:33:37.055Z,26.07
2018-03-01T12:37:01.251Z,26.47
2018-03-01T12:40:25.366Z,26.53
2018-03-01T12:43:48.701Z,26.50
2018-03-01T12:47:12.072Z,26.23
2018-03-01T12:50:35.441Z,25.80
2018-03-01T12:53:58.749Z,25.50
2018-03-01T12:57:22.143Z,27.03
2018-03-01T13:00:46.265Z,24.03
2018-03-01T13:04:10.414Z,25.30
2018-03-01T13:07:34.499Z,25.37
2018-03-01T13:10:58.618Z,26.80
2018-03-01T13:14:22.046Z,26.90
2018-03-01T13:17:45.378Z,25.97
2018-03-01T13:21:09.449Z,26.10
2018-03-01T13:24:32.877Z,26.60
2018-03-01T13:27:56.197Z,26.60
2018-03-01T13:31:19.497Z,26.17
2018-03-01T13:34:47.217Z,26.53
2018-03-01T13:38:10.606Z,26.20
2018-03-01T13:41:33.877Z,25.83
2018-03-01T13:44:57.231Z,26.93
2018-03-01T13:48:20.509Z,26.87
2018-03-01T13:51:43.790Z,26.20
2018-03-01T13:55:07.920Z,26.17
2018-03-01T13:58:31.249Z,26.07
2018-03-01T14:01:55.332Z,27.00
2018-03-01T14:05:19.467Z,28.37
2018-03-01T14:08:42.731Z,26.37
2018-03-01T14:16:02.355Z,26.27
2018-03-01T14:19:28.225Z,25.83
2018-03-01T14:22:52.295Z,26.80
2018-03-01T14:26:18.614Z,26.73
2018-03-01T14:30:02.629Z,26.73
2018-03-01T14:33:26.761Z,24.67
2018-03-01T14:36:50.826Z,25.87
2018-03-01T14:40:14.121Z,26.90
2018-03-01T14:43:38.351Z,27.33
2018-03-01T14:47:03.501Z,24.07
2018-03-01T14:50:26.784Z,27.17
2018-03-01T14:53:50.816Z,25.80
2018-03-01T14:57:14.915Z,28.43
2018-03-01T15:00:38.205Z,25.93
2018-03-01T15:04:01.540Z,25.13
2018-03-01T15:07:25.580Z,26.30
2018-03-01T15:10:49.638Z,27.13
2018-03-01T15:14:17.001Z,25.00
2018-03-01T15:17:40.320Z,25.23
2018-03-01T15:21:03.891Z,25.97
2018-03-01T15:24:28.074Z,27.10
2018-03-01T15:27:51.468Z,26.63
2018-03-01T15:31:14.767Z,25.40
2018-03-01T15:34:38.999Z,26.03
2018-03-01T15:38:02.357Z,25.73
2018-03-01T15:41:26.451Z,28.10
2018-03-01T15:44:49.825Z,26.20
2018-03-01T15:48:13.873Z,26.80
2018-03-01T15:51:38.051Z,25.90
2018-03-01T15:55:02.163Z,26.67
2018-03-01T15:58:26.526Z,25.17
2018-03-01T16:01:50.601Z,26.60
2018-03-01T16:05:14.020Z,25.40
2018-03-01T16:08:37.347Z,25.57
2018-03-01T16:12:01.453Z,26.40
2018-03-01T16:15:24.804Z,26.87
2018-03-01T16:26:48.983Z,25.57
2018-03-01T16:30:16.081Z,27.53
2018-03-01T16:33:39.611Z,27.20
2018-03-01T16:37:02.927Z,25.00
2018-03-01T16:40:26.288Z,27.47
2018-03-01T16:43:49.777Z,26.23
2018-03-01T16:47:13.313Z,27.77
2018-03-01T16:50:36.650Z,27.17
2018-03-01T16:54:00.798Z,26.87
2018-03-01T16:57:24.053Z,27.07
2018-03-01T17:00:48.117Z,26.40
2018-03-01T17:04:11.409Z,25.10
2018-03-01T17:07:35.441Z,27.23
2018-03-01T17:10:59.665Z,25.47
2018-03-01T17:14:22.931Z,26.97
2018-03-01T17:17:46.257Z,26.97
2018-03-01T17:21:09.543Z,26.20
2018-03-01T17:24:33.597Z,25.53
2018-03-01T17:27:56.919Z,26.50
2018-03-01T17:31:20.178Z,27.17
2018-03-01T17:34:43.480Z,27.77
2018-03-01T17:38:07.583Z,28.30
2018-03-01T17:41:30.875Z,28.10
2018-03-01T17:44:54.235Z,29.10
2018-03-01T17:48:17.514Z,27.97
2018-03-01T17:51:41.590Z,26.13
2018-03-01T17:55:04.858Z,26.30
2018-03-01T17:58:28.149Z,26.07
2018-03-01T18:01:51.899Z,28.33
2018-03-01T18:05:15.230Z,28.33
2018-03-01T18:08:38.520Z,27.73
2018-03-01T18:12:02.667Z,27.43
2018-03-01T18:15:28.047Z,27.30
2018-03-01T18:18:52.302Z,26.37
2018-03-01T18:22:15.662Z,27.70
2018-03-01T18:25:39.820Z,28.70
2018-03-01T18:29:04.724Z,26.50
2018-03-01T18:32:28.077Z,27.03
2018-03-01T18:35:51.479Z,25.27
2018-03-01T18:39:14.907Z,27.00
2018-03-01T18:42:38.412Z,26.70
2018-03-01T18:46:02.526Z,27.37
2018-03-01T18:49:25.883Z,29.60
2018-03-01T18:52:50.002Z,27.37
2018-03-01T18:56:13.392Z,28.43
2018-03-01T18:59:36.743Z,29.27
2018-03-01T19:03:03.388Z,27.70
2018-03-01T19:06:29.442Z,28.20
2018-03-01T19:09:52.954Z,28.47
2018-03-01T19:13:17.253Z,28.80
2018-03-01T19:16:41.732Z,27.20
2018-03-01T19:20:05.835Z,26.83
2018-03-01T19:23:29.138Z,27.50
2018-03-01T19:26:53.512Z,27.93
2018-03-01T19:30:17.004Z,29.37
2018-03-01T19:33:41.210Z,29.37
2018-03-01T19:37:04.645Z,30.73
2018-03-01T19:40:28.058Z,29.80
2018-03-01T19:43:51.352Z,29.37
2018-03-01T19:47:15.457Z,29.20
2018-03-01T19:50:39.512Z,28.53
2018-03-01T19:54:02.829Z,28.20
2018-03-01T19:57:26.142Z,27.80
2018-03-01T20:00:49.442Z,28.50
2018-03-01T20:04:13.483Z,28.47
2018-03-01T20:07:37.714Z,28.50
2018-03-01T20:11:01.775Z,28.60
2018-03-01T20:14:25.099Z,28.33
2018-03-01T20:17:48.423Z,29.20
2018-03-01T20:21:11.851Z,29.87
2018-03-01T20:24:36.043Z,29.40
2018-03-01T20:27:59.342Z,30.37
2018-03-01T20:31:22.725Z,28.43
2018-03-01T20:34:46.099Z,28.00
2018-03-01T20:38:09.416Z,28.20
2018-03-01T20:41:32.749Z,28.63
2018-03-01T20:44:56.931Z,28.80
2018-03-01T20:48:20.224Z,29.20
2018-03-01T20:51:43.501Z,29.63
2018-03-01T20:55:06.884Z,27.80
2018-03-01T20:58:30.314Z,28.03
2018-03-01T21:01:53.684Z,29.30
2018-03-01T21:05:17.749Z,29.17
2018-03-01T21:08:41.146Z,29.43
2018-03-01T21:12:06.194Z,28.40
2018-03-01T21:15:29.535Z,28.53
2018-03-01T21:18:53.643Z,28.17
2018-03-01T21:22:16.971Z,27.87
2018-03-01T21:25:40.343Z,26.73
2018-03-01T21:29:03.720Z,28.97
2018-03-01T21:32:27.807Z,27.93
2018-03-01T21:35:52.026Z,27.60
2018-03-01T21:39:15.812Z,27.43
2018-03-01T21:42:39.169Z,27.30
2018-03-01T21:46:02.451Z,26.67
2018-03-01T21:49:25.825Z,27.70
2018-03-01T21:52:49.232Z,29.37
2018-03-01T21:56:12.527Z,27.53
2018-03-01T21:59:36.609Z,26.37
2018-03-01T22:03:00.816Z,28.20
2018-03-01T22:06:24.171Z,27.50
2018-03-01T22:09:48.271Z,28.80
2018-03-01T22:13:12.804Z,26.60
2018-03-01T22:16:39.562Z,27.57
2018-03-01T22:20:03.629Z,26.23
2018-03-01T22:23:27.005Z,29.03
2018-03-01T22:26:50.373Z,26.80
2018-03-01T22:30:13.834Z,26.90
2018-03-01T22:33:38.242Z,28.13
2018-03-01T22:37:01.612Z,27.20
2018-03-01T22:40:25.813Z,27.17
2018-03-01T22:43:50.034Z,27.53
2018-03-01T22:47:13.616Z,25.60
2018-03-01T22:50:36.989Z,26.57
2018-03-01T22:54:00.294Z,26.67
2018-03-01T22:57:23.777Z,27.03
2018-03-01T23:00:57.803Z,27.17
2018-03-01T23:04:21.935Z,26.47
2018-03-01T23:07:45.319Z,26.40
2018-03-01T23:11:09.407Z,25.70
2018-03-01T23:14:33.554Z,25.30
2018-03-01T23:17:57.723Z,26.63
2018-03-01T23:21:21.097Z,25.87
2018-03-01T23:24:44.376Z,25.90
2018-03-01T23:28:08.651Z,24.80
2018-03-01T23:31:32.726Z,26.33
2018-03-01T23:34:56.503Z,25.73
2018-03-01T23:38:20.136Z,26.07
2018-03-01T23:41:43.723Z,25.40
2018-03-01T23:45:07.294Z,25.73
2018-03-01T23:48:30.799Z,26.00
2018-03-01T23:51:54.564Z,25.60
2018-03-01T23:55:19.248Z,26.13
2018-03-01T23:58:42.956Z,24.70
